Las horas y fechas están en horario UTC
Sumar 1 hora en el horario de Invierno y 2 horas en el de Verano

Informes METAR cercanos

 

LEZL - Sevilla (civ/Mil, Spain
Distance from station: NNE 24km
Actualización: 10/12/2018 10:30
Despejado
Despejado
 Viento del ENE
Viento: ENE 24 km/h
Temperatura: 16°C
Rocío: 7°C
Humedad: 55%
Barómetro: 1027 hPa
Resumen: Despejado
Visibility: greater than 10 km
2018/12/10 09:30 LEZL 100930Z 06013KT CAVOK 16/07 Q1027 NOSIG
LEMO - Moron (sp-Usafb), Spain
Distance from station: E 38km
Actualización: 10/12/2018 10:00
Despejado
Despejado
 Viento del NE
Viento: NE 15 km/h
Temperatura: 12°C
Rocío: 7°C
Humedad: 72%
Barómetro: 1026 hPa
Resumen: Despejado
Visibility: greater than 10 km
2018/12/10 09:00 LEMO 100900Z 05008KT CAVOK 12/07 Q1026 NOSIG
LEJR - Jerez (civ/Mil), Spain
Distance from station: S 53km
Actualización: 10/12/2018 10:30
Despejado
Despejado
 Viento del calm
Viento: Calma
Temperatura: 11°C
Rocío: 10°C
Humedad: 94%
Barómetro: 1026 hPa
Resumen: Despejado
Visibility: greater than 10 km
2018/12/10 09:30 LEJR 100930Z 00000KT CAVOK 11/10 Q1026
 
LERT - Rota Naval Stati, Spain
Distance from station: SSO 71km
Actualización: 10/12/2018 10:00
Despejado
Despejado
 Viento del NE
Viento: NE 11 km/h
Temperatura: 12°C
Rocío: 9°C
Humedad: 82%
Barómetro: 1026 hPa
Resumen: Despejado
Visibility: greater than 10 km
2018/12/10 09:00 LERT 100900Z 04006KT CAVOK 12/09 Q1026 NOSIG
LEBA - Cordoba Airport, Spain
Distance from station: ENE 128km
Actualización: 10/12/2018 10:30
Despejado
Despejado
 Viento del E
Viento: E 17 km/h
Temperatura: 12°C
Rocío: 7°C
Humedad: 72%
Barómetro: 1028 hPa
Resumen: Despejado
Visibility: greater than 10 km
2018/12/10 09:30 LEBA 100930Z 09009KT CAVOK 12/07 Q1028
LXGB - Gibraltar (civ/M, Gibraltar
Distance from station: SSE 137km
Actualización: 10/12/2018 09:50
Haze, Muy nuboso
Haze, Muy nuboso
 Viento del NE
Viento: NE 11 km/h
Temperatura: 14°C
Rocío: 13°C
Humedad: 94%
Barómetro: 1027 hPa
Resumen: Haze
Clouds: Muy nuboso
Visibility: 6 km
Cloud details: Muy nuboso 213 m
2018/12/10 08:50 LXGB 100850Z 04006KT 6000 HZ BKN007 14/13 Q1027 GRN BECMG 9000 FEW008 BLU
 
LEMG - Malaga (civ/Mil), Spain
Distance from station: ESE 150km
Actualización: 10/12/2018 10:30
Few Clouds
Few Clouds
 Viento del ONO
Viento: ONO 7 km/h
Temperatura: 13°C
Rocío: 9°C
Humedad: 77%
Barómetro: 1028 hPa
Clouds: Few Clouds
Visibility: 10 km
Cloud details: Few Clouds 457 m
2018/12/10 09:30 LEMG 100930Z 30004KT 9999 FEW015 13/09 Q1028 NOSIG
GMTT - Tangier/Boukhalf, Morocco
Distance from station: S 169km
Actualización: 10/12/2018 10:30
Parcialmente nuboso
Parcialmente nuboso
 Viento del ESE
Viento: ESE 17 km/h
Temperatura: 16°C
Rocío: 11°C
Humedad: 72%
Barómetro: 1025 hPa
Clouds: Parcialmente nuboso
Visibility: 8 km
2018/12/10 09:30 GMTT 100930Z 11009KT 8000 NSC 16/11 Q1025 NOSIG
LPFR - Faro, Portugal
Distance from station: O 172km
Actualización: 10/12/2018 10:30
Despejado
Despejado
 Viento del ENE
Viento: ENE 15 km/h
Temperatura: 17°C
Rocío: 10°C
Humedad: 64%
Barómetro: 1026 hPa
Resumen: Despejado
Visibility: greater than 10 km
2018/12/10 09:30 LPFR 100930Z 06008KT CAVOK 17/10 Q1026
 
LPBJ - Beja (por/Ger-Af, Portugal
Distance from station: ONO 192km
Actualización: 10/12/2018 10:00
Despejado
Despejado
 Viento del E
Viento: E 11 km/h
Temperatura: 11°C
Rocío: 8°C
Humedad: 82%
Barómetro: 1027 hPa
Resumen: Despejado
Visibility: greater than 10 km
2018/12/10 09:00 LPBJ 100900Z 09006KT CAVOK 11/08 Q1027
LEBZ - Talavera Ab/Bada, Spain
Distance from station: NNO 194km
Actualización: 10/12/2018 10:00
Despejado
Despejado
 Viento del varies
Viento: varies 2 km/h
Temperatura: 7°C
Rocío: 7°C
Humedad: 100%
Barómetro: 1029 hPa
Resumen: Despejado
Visibility: greater than 10 km
2018/12/10 09:00 LEBZ 100900Z VRB01KT CAVOK 07/07 Q1029
LEMD - Madrid/Barajas, Spain
Distance from station: NE 415km
Actualización: 10/12/2018 10:30
Despejado
Despejado
 Viento del N
Viento: N 6 km/h
Temperatura: 4°C
Rocío: 2°C
Humedad: 87%
Barómetro: 1031 hPa
Resumen: Despejado
Visibility: greater than 10 km
2018/12/10 09:30 LEMD 100930Z 01003KT CAVOK 04/02 Q1031 NOSIG